Time;durP1;ratioP1;P1;durP2;ratioP2;P2;SDS_P1;SDS_P2;PMS_P1;PMS_P2;Temp;Humidity;BMP_temperature;BMP_pressure;BME280_temperature;BME280_humidity;BME280_pressure;Samples;Min_cycle;Max_cycle;Signal;HPM_P1;HPM_P2
2022/09/08 00:00:44;;;;;;;16.75;14.45;;;;;;;14.31;100.00;156116.53;4988043;28;20038;-74
2022/09/08 00:03:13;;;;;;;14.77;13.23;;;;;;;14.31;100.00;156116.53;4975344;28;20384;-74
2022/09/08 00:05:50;;;;;;;20.77;13.70;;;;;;;14.30;100.00;156115.28;5013822;28;20517;-73
2022/09/08 00:08:20;;;;;;;17.75;14.30;;;;;;;14.28;100.00;156108.81;4988760;28;20394;-74
2022/09/08 00:10:50;;;;;;;17.15;13.52;;;;;;;14.18;100.00;156084.38;5006012;28;20033;-75
2022/09/08 00:13:16;;;;;;;20.13;15.05;;;;;;;14.19;100.00;156086.97;5008653;28;20040;-75
2022/09/08 00:15:42;;;;;;;19.00;15.15;;;;;;;14.16;100.00;156080.53;5002313;28;20514;-78
2022/09/08 00:18:08;;;;;;;16.13;14.07;;;;;;;14.15;100.00;156076.72;5006571;28;20038;-74
2022/09/08 00:20:34;;;;;;;21.65;14.88;;;;;;;14.12;100.00;156070.25;4982433;28;20061;-73
2022/09/08 00:22:59;;;;;;;14.80;13.10;;;;;;;14.15;100.00;156076.72;4998924;28;20495;-75
2022/09/08 00:25:26;;;;;;;17.40;14.30;;;;;;;14.10;100.00;156063.84;5003695;28;20061;-73
2022/09/08 00:27:52;;;;;;;15.43;13.65;;;;;;;14.04;100.00;156048.41;4996313;28;20038;-73
2022/09/08 00:30:18;;;;;;;17.95;14.80;;;;;;;14.02;100.00;156044.56;5019271;28;20113;-73
2022/09/08 00:32:44;;;;;;;15.82;14.15;;;;;;;13.99;100.00;156036.81;4988284;28;20088;-75
2022/09/08 00:35:14;;;;;;;15.80;14.15;;;;;;;13.95;100.00;156027.81;5012332;28;20191;-73
2022/09/08 00:37:42;;;;;;;18.38;15.02;;;;;;;13.90;100.00;156013.69;4974402;28;20038;-75
2022/09/08 00:40:09;;;;;;;16.08;14.43;;;;;;;13.85;100.00;156000.84;4969226;28;20120;-75
2022/09/08 00:42:35;;;;;;;19.50;16.25;;;;;;;13.78;100.00;155984.13;5017648;28;20038;-74
2022/09/08 00:45:05;;;;;;;17.83;15.73;;;;;;;13.75;100.00;155976.38;4981750;28;20247;-73
2022/09/08 00:47:40;;;;;;;20.80;16.33;;;;;;;13.77;100.00;155982.84;4977610;28;20491;-74
2022/09/08 00:50:14;;;;;;;18.00;15.80;;;;;;;13.73;100.00;155972.56;4967864;28;20064;-76
2022/09/08 00:52:50;;;;;;;18.95;17.02;;;;;;;13.76;100.00;155980.25;4976447;28;20045;-76
2022/09/08 00:55:20;;;;;;;18.08;16.25;;;;;;;13.75;100.00;155976.38;4987425;28;20103;-76
2022/09/08 00:57:48;;;;;;;19.05;16.75;;;;;;;13.69;100.00;155962.25;4984794;28;20117;-74
2022/09/08 01:00:18;;;;;;;20.92;18.67;;;;;;;13.68;100.00;155958.44;4988373;28;20494;-73
2022/09/08 01:02:45;;;;;;;19.33;17.45;;;;;;;13.66;100.00;155953.28;4970917;28;20672;-74
2022/09/08 01:05:15;;;;;;;19.35;17.45;;;;;;;13.60;100.00;155939.16;4970721;28;20116;-73
2022/09/08 01:14:00;;;;;;;18.45;16.70;;;;;;;13.55;100.00;155927.56;5001053;28;20089;-75
2022/09/08 01:16:26;;;;;;;21.30;18.95;;;;;;;13.55;100.00;155926.28;4989072;28;20030;-74
2022/09/08 01:18:54;;;;;;;22.42;18.73;;;;;;;13.55;100.00;155927.56;5007587;28;20599;-76
2022/09/08 01:21:43;;;;;;;21.27;18.40;;;;;;;13.45;100.00;155901.88;5008564;28;20376;-75
2022/09/08 01:24:21;;;;;;;20.65;18.45;;;;;;;13.50;100.00;155914.69;5001323;28;20030;-75
2022/09/08 01:27:18;;;;;;;22.73;20.20;;;;;;;13.62;100.00;155945.56;5006378;28;20103;-75
2022/09/08 01:29:48;;;;;;;24.25;21.67;;;;;;;13.62;100.00;155944.28;5019822;28;20042;-75
2022/09/08 01:32:15;;;;;;;25.55;18.73;;;;;;;13.59;100.00;155936.56;4978147;28;20030;-75
2022/09/08 01:34:48;;;;;;;25.05;20.20;;;;;;;13.58;100.00;155935.28;4997428;28;20045;-74
2022/09/08 01:37:14;;;;;;;;;;;;;;;13.56;100.00;155928.84;4985955;28;20034;-73
2022/09/08 01:39:40;;;;;;;21.15;18.92;;;;;;;13.49;100.00;155910.88;4996000;28;19922;-74
2022/09/08 01:42:13;;;;;;;23.08;20.48;;;;;;;13.43;100.00;155896.75;4974974;28;20453;-76
2022/09/08 01:44:43;;;;;;;22.35;20.00;;;;;;;13.36;100.00;155880.00;4994018;28;20084;-75
2022/09/08 01:47:13;;;;;;;21.23;18.88;;;;;;;13.34;100.00;155873.59;5001116;28;20030;-75
2022/09/08 01:49:39;;;;;;;19.77;17.75;;;;;;;13.34;100.00;155874.88;4960412;28;20034;-74
2022/09/08 01:52:09;;;;;;;22.55;19.13;;;;;;;13.28;100.00;155858.09;5002938;28;20579;-74
2022/09/08 01:54:35;;;;;;;20.90;18.83;;;;;;;13.26;100.00;155854.28;5000078;28;20045;-75
2022/09/08 01:57:04;;;;;;;18.30;16.40;;;;;;;13.17;100.00;155832.41;4982364;28;20592;-74
2022/09/08 01:59:33;;;;;;;25.10;19.60;;;;;;;13.15;100.00;155827.28;4986700;28;20040;-74
2022/09/08 02:02:00;;;;;;;23.65;19.48;;;;;;;13.23;100.00;155847.81;4990599;28;20037;-74
2022/09/08 02:04:25;;;;;;;22.27;18.83;;;;;;;13.26;100.00;155854.28;5007626;28;20042;-75
2022/09/08 02:06:51;;;;;;;24.70;20.13;;;;;;;13.33;100.00;155871.00;4991768;28;20060;-75
2022/09/08 02:09:17;;;;;;;23.83;21.23;;;;;;;13.36;100.00;155880.00;4988688;28;20093;-76
2022/09/08 02:11:43;;;;;;;23.27;20.77;;;;;;;13.38;100.00;155883.88;4971724;28;20152;-75
2022/09/08 02:14:09;;;;;;;25.38;20.23;;;;;;;13.42;100.00;155894.16;5003297;28;20032;-77
2022/09/08 02:16:35;;;;;;;24.95;21.85;;;;;;;13.45;100.00;155901.88;5010089;28;20030;-76
2022/09/08 02:19:01;;;;;;;22.25;19.27;;;;;;;13.48;100.00;155909.56;4990845;28;20041;-76
2022/09/08 02:21:27;;;;;;;23.02;19.05;;;;;;;13.38;100.00;155885.16;4994374;28;20026;-76
2022/09/08 02:23:53;;;;;;;21.38;19.08;;;;;;;13.31;100.00;155865.88;5004045;28;20088;-76
2022/09/08 02:26:22;;;;;;;21.98;19.25;;;;;;;13.35;100.00;155877.41;4999818;28;20033;-78
2022/09/08 02:28:51;;;;;;;25.67;18.77;;;;;;;13.30;100.00;155864.59;5004200;28;20112;-76
2022/09/08 02:31:17;;;;;;;21.45;18.35;;;;;;;13.31;100.00;155865.88;5015879;28;20030;-76
2022/09/08 02:33:42;;;;;;;21.15;18.75;;;;;;;13.33;100.00;155871.00;4987163;28;20097;-76
2022/09/08 02:36:08;;;;;;;23.55;18.05;;;;;;;13.34;100.00;155874.88;4999460;28;20034;-76
2022/09/08 02:38:33;;;;;;;22.58;18.33;;;;;;;13.33;100.00;155872.28;4997562;28;20675;-76
2022/09/08 02:41:00;;;;;;;21.65;18.80;;;;;;;13.39;100.00;155886.41;4994420;28;20575;-74
2022/09/08 02:43:28;;;;;;;20.60;17.65;;;;;;;13.33;100.00;155871.00;5002169;28;20068;-76
2022/09/08 02:45:53;;;;;;;19.75;17.42;;;;;;;13.33;100.00;155872.28;4997574;28;20518;-77
2022/09/08 02:48:19;;;;;;;18.98;16.98;;;;;;;13.33;100.00;155872.28;4989558;28;20030;-74
2022/09/08 02:50:47;;;;;;;18.25;16.35;;;;;;;13.30;100.00;155863.22;4999300;28;20570;-78
2022/09/08 02:53:14;;;;;;;19.20;15.80;;;;;;;13.27;100.00;155855.56;4991935;28;20386;-75
2022/09/08 02:55:41;;;;;;;18.55;15.88;;;;;;;13.27;100.00;155856.81;5010339;28;20760;-75
2022/09/08 02:58:08;;;;;;;19.92;16.65;;;;;;;13.18;100.00;155834.97;4985876;28;20033;-74
2022/09/08 03:00:36;;;;;;;18.10;15.95;;;;;;;13.11;100.00;155817.00;5009440;28;20044;-74
2022/09/08 03:03:02;;;;;;;17.63;15.82;;;;;;;13.08;100.00;155809.28;5002301;28;20038;-76
2022/09/08 03:05:29;;;;;;;17.38;15.45;;;;;;;13.04;100.00;155800.28;4999855;28;20081;-75
2022/09/08 03:07:57;;;;;;;18.83;16.88;;;;;;;13.01;100.00;155792.56;5001619;28;20057;-76
2022/09/08 03:10:23;;;;;;;19.63;16.55;;;;;;;12.95;100.00;155775.88;4993790;28;20033;-76
2022/09/08 03:12:54;;;;;;;17.85;15.80;;;;;;;12.95;100.00;155775.88;5004742;28;20144;-76
2022/09/08 03:15:21;;;;;;;16.65;14.95;;;;;;;12.97;100.00;155781.00;5007225;28;20442;-76
2022/09/08 03:17:47;;;;;;;17.92;16.13;;;;;;;12.96;100.00;155779.75;5010709;28;20037;-76
2022/09/08 03:20:14;;;;;;;17.95;15.65;;;;;;;13.01;100.00;155791.28;4987930;28;20545;-75
2022/09/08 03:22:40;;;;;;;17.25;15.48;;;;;;;12.94;100.00;155774.63;5008367;28;20058;-75
2022/09/08 03:25:06;;;;;;;16.92;14.82;;;;;;;12.96;100.00;155779.75;5018339;28;20044;-76
2022/09/08 03:27:31;;;;;;;18.67;15.90;;;;;;;12.93;100.00;155770.75;5009103;28;20707;-75
2022/09/08 03:29:57;;;;;;;18.17;14.82;;;;;;;12.90;100.00;155763.03;5004119;28;20027;-76
2022/09/08 03:32:23;;;;;;;17.70;15.23;;;;;;;12.89;100.00;155760.47;5008609;28;20403;-76
2022/09/08 03:34:48;;;;;;;18.77;15.52;;;;;;;12.83;100.00;155747.63;5005459;28;20028;-77
2022/09/08 03:37:14;;;;;;;16.52;14.82;;;;;;;12.85;100.00;155751.47;5002602;28;20479;-76
2022/09/08 03:39:40;;;;;;;16.15;14.18;;;;;;;12.84;100.00;155750.16;5006977;28;20060;-75
2022/09/08 03:42:05;;;;;;;15.88;14.18;;;;;;;12.83;100.00;155746.34;5008255;28;20153;-76
2022/09/08 03:44:32;;;;;;;17.25;14.98;;;;;;;12.81;100.00;155741.22;4995270;28;20500;-77
2022/09/08 03:46:58;;;;;;;19.48;14.60;;;;;;;12.82;100.00;155743.75;5002884;28;20084;-76
2022/09/08 03:49:25;;;;;;;19.48;15.25;;;;;;;12.85;100.00;155751.47;5000124;28;20026;-76
2022/09/08 03:51:50;;;;;;;16.73;15.00;;;;;;;12.87;100.00;155756.59;5001736;28;20042;-75
2022/09/08 03:57:00;;;;;;;15.50;13.75;;;;;;;12.83;100.00;155746.34;5008315;28;20107;-75
2022/09/08 03:59:26;;;;;;;19.70;14.55;;;;;;;12.93;100.00;155770.75;4984284;28;20722;-75
2022/09/08 04:01:53;;;;;;;19.83;13.95;;;;;;;12.95;100.00;155775.88;4992072;28;20095;-76
2022/09/08 04:04:22;;;;;;;16.48;13.85;;;;;;;12.99;100.00;155786.16;4967232;28;20037;-75
2022/09/08 04:06:49;;;;;;;19.63;13.88;;;;;;;12.89;100.00;155760.47;4999092;28;20038;-76
2022/09/08 04:09:15;;;;;;;14.82;13.32;;;;;;;12.87;100.00;155756.59;5003265;28;20046;-75
2022/09/08 04:11:40;;;;;;;16.27;12.70;;;;;;;12.92;100.00;155768.16;5004788;28;20117;-76
2022/09/08 04:14:06;;;;;;;18.65;13.38;;;;;;;12.90;100.00;155764.28;4992773;28;20113;-76
2022/09/08 04:16:32;;;;;;;17.02;13.23;;;;;;;12.92;100.00;155769.47;4986462;28;20104;-76
2022/09/08 04:18:57;;;;;;;18.92;13.05;;;;;;;12.93;100.00;155770.75;5000625;28;20030;-76
2022/09/08 04:21:23;;;;;;;17.50;13.70;;;;;;;12.97;100.00;155782.28;5004603;28;20040;-75
2022/09/08 04:23:48;;;;;;;16.45;12.77;;;;;;;13.01;100.00;155791.28;4995575;28;20077;-75
2022/09/08 04:26:14;;;;;;;18.00;12.02;;;;;;;13.03;100.00;155797.75;4988218;28;20046;-76
2022/09/08 04:28:40;;;;;;;15.15;11.65;;;;;;;13.03;100.00;155797.75;5003970;28;20041;-75
2022/09/08 04:31:09;;;;;;;21.25;12.32;;;;;;;13.00;100.00;155790.00;4987887;28;20034;-76
2022/09/08 04:33:35;;;;;;;16.52;12.82;;;;;;;13.00;100.00;155788.75;5001487;28;20526;-76
2022/09/08 04:36:21;;;;;;;14.55;11.18;;;;;;;12.99;100.00;155786.16;4988550;28;20029;-73
2022/09/08 04:38:47;;;;;;;15.10;12.00;;;;;;;12.96;100.00;155778.44;4993402;28;20026;-75
2022/09/08 04:41:16;;;;;;;15.35;12.57;;;;;;;12.95;100.00;155777.16;4988977;28;20029;-75
2022/09/08 04:43:42;;;;;;;14.80;11.43;;;;;;;12.94;100.00;155774.63;4971145;28;20503;-74
2022/09/08 04:46:11;;;;;;;14.40;11.63;;;;;;;12.94;100.00;155774.63;4969191;28;20057;-75
2022/09/08 04:48:39;;;;;;;14.15;11.32;;;;;;;12.92;100.00;155769.47;4981614;28;20029;-75
2022/09/08 04:51:06;;;;;;;15.10;11.43;;;;;;;12.86;100.00;155754.03;4983770;28;20072;-75
2022/09/08 04:53:33;;;;;;;12.70;11.40;;;;;;;12.88;100.00;155759.16;5002720;28;20065;-75
2022/09/08 04:56:00;;;;;;;13.20;11.77;;;;;;;12.89;100.00;155760.47;4987607;28;20116;-74
2022/09/08 04:58:29;;;;;;;12.90;10.27;;;;;;;12.88;100.00;155757.88;4963982;28;20038;-74
2022/09/08 05:01:01;;;;;;;12.75;11.07;;;;;;;12.91;100.00;155766.88;4998319;28;20050;-74
2022/09/08 05:03:27;;;;;;;16.80;10.23;;;;;;;12.95;100.00;155775.88;4990191;28;20034;-74
2022/09/08 05:05:53;;;;;;;15.70;10.65;;;;;;;12.96;100.00;155779.75;4986083;28;20046;-75
2022/09/08 05:08:19;;;;;;;15.23;11.05;;;;;;;13.02;100.00;155793.88;5003148;28;20430;-75
2022/09/08 05:10:47;;;;;;;13.52;10.52;;;;;;;13.05;100.00;155802.88;5004679;28;20080;-74
2022/09/08 05:13:13;;;;;;;12.68;10.35;;;;;;;13.15;100.00;155826.00;5000288;28;20038;-74
2022/09/08 05:15:38;;;;;;;17.05;10.68;;;;;;;13.15;100.00;155827.28;5014204;28;20399;-74
2022/09/08 05:18:04;;;;;;;13.82;10.48;;;;;;;13.16;100.00;155828.56;4991872;28;20044;-75
2022/09/08 05:20:30;;;;;;;15.40;9.95;;;;;;;13.22;100.00;155845.28;5000240;28;20034;-74
2022/09/08 05:22:55;;;;;;;17.27;10.43;;;;;;;13.25;100.00;155852.97;4980066;28;20045;-74
2022/09/08 05:25:21;;;;;;;12.00;10.45;;;;;;;13.31;100.00;155867.16;4995210;28;20042;-74
2022/09/08 05:27:49;;;;;;;13.93;10.27;;;;;;;13.37;100.00;155881.28;4997534;28;20079;-73
2022/09/08 05:30:15;;;;;;;12.32;9.50;;;;;;;13.32;100.00;155868.47;4999827;28;20084;-74
2022/09/08 05:32:41;;;;;;;13.23;9.07;;;;;;;13.31;100.00;155867.16;5006288;28;20030;-73
2022/09/08 05:35:07;;;;;;;17.08;9.93;;;;;;;13.36;100.00;155880.00;5001446;28;20384;-74
2022/09/08 05:37:34;;;;;;;14.05;9.98;;;;;;;13.36;100.00;155880.00;4996535;28;20038;-74
2022/09/08 05:40:00;;;;;;;14.05;9.85;;;;;;;13.38;100.00;155883.88;4982651;28;20038;-74
2022/09/08 05:42:25;;;;;;;12.98;8.38;;;;;;;13.44;100.00;155899.28;4986361;28;20407;-74
2022/09/08 05:44:51;;;;;;;10.35;8.55;;;;;;;13.43;100.00;155898.00;5002781;28;20050;-74
2022/09/08 05:47:17;;;;;;;10.52;8.75;;;;;;;13.46;100.00;155904.44;4995014;28;20034;-74
2022/09/08 05:49:43;;;;;;;15.38;8.50;;;;;;;13.58;100.00;155933.97;5004975;28;20092;-74
2022/09/08 05:52:08;;;;;;;11.02;7.82;;;;;;;13.56;100.00;155930.16;4981656;28;20454;-74
2022/09/08 05:54:35;;;;;;;8.70;7.72;;;;;;;13.62;100.00;155945.56;4983459;28;20097;-74
2022/09/08 05:57:00;;;;;;;11.43;8.05;;;;;;;13.69;100.00;155962.25;5005356;28;20034;-74
2022/09/08 05:59:26;;;;;;;15.77;8.25;;;;;;;13.72;100.00;155969.97;4979164;28;20121;-74
2022/09/08 06:01:51;;;;;;;11.20;7.57;;;;;;;13.71;100.00;155967.44;5001883;28;20042;-74
2022/09/08 06:04:18;;;;;;;12.02;7.88;;;;;;;13.81;100.00;155993.13;4996939;28;20491;-74
2022/09/08 06:06:44;;;;;;;10.05;8.07;;;;;;;13.92;100.00;156020.13;4987045;28;20038;-74
2022/09/08 06:09:12;;;;;;;13.05;7.85;;;;;;;14.00;100.00;156040.69;5003000;28;20044;-76
2022/09/08 06:11:39;;;;;;;11.55;6.78;;;;;;;14.09;100.00;156061.25;4989146;28;20052;-75
2022/09/08 06:14:05;;;;;;;14.57;7.47;;;;;;;14.14;100.00;156075.38;4971172;28;20391;-75
2022/09/08 06:16:32;;;;;;;13.93;7.25;;;;;;;14.26;100.00;156103.66;4986559;28;20109;-75
2022/09/08 06:19:00;;;;;;;8.02;6.22;;;;;;;14.33;100.00;156122.97;4993780;28;20030;-75
2022/09/08 06:21:29;;;;;;;10.50;6.03;;;;;;;14.43;100.00;156146.13;5003770;28;20065;-75
2022/09/08 06:23:57;;;;;;;7.93;6.10;;;;;;;14.56;100.00;156180.88;5011291;28;20113;-75
2022/09/08 06:26:29;;;;;;;10.65;5.72;;;;;;;14.56;100.00;156180.88;4996027;28;20045;-75
2022/09/08 06:29:11;;;;;;;11.20;5.55;;;;;;;14.68;100.00;156210.47;4990434;28;20050;-76
2022/09/08 06:31:44;;;;;;;11.47;6.20;;;;;;;14.75;100.00;156227.22;5021928;28;20042;-76
2022/09/08 06:34:22;;;;;;;6.03;5.10;;;;;;;14.73;100.00;156223.34;5004521;28;20726;-75
2022/09/08 06:36:53;;;;;;;10.95;5.30;;;;;;;14.79;100.00;156238.78;5007439;28;20061;-76
2022/09/08 06:39:39;;;;;;;5.93;4.63;;;;;;;14.76;100.00;156231.03;5001161;28;20193;-75
2022/09/08 06:42:27;;;;;;;6.13;4.57;;;;;;;14.83;100.00;156247.78;4990528;28;20049;-76
2022/09/08 06:44:55;;;;;;;10.35;5.32;;;;;;;14.72;100.00;156220.75;4993714;28;20044;-76
2022/09/08 06:47:26;;;;;;;8.82;4.78;;;;;;;14.78;100.00;156236.19;5002364;28;20108;-75
2022/09/08 06:49:52;;;;;;;14.70;5.00;;;;;;;14.75;100.00;156227.22;5003922;28;20026;-75
2022/09/08 06:52:29;;;;;;;10.07;5.22;;;;;;;14.66;100.00;156205.34;5004919;28;20045;-76
2022/09/08 06:55:06;;;;;;;8.00;4.57;;;;;;;14.70;100.00;156214.34;4971796;28;20037;-75
2022/09/08 06:57:55;;;;;;;11.35;4.85;;;;;;;14.67;100.00;156207.88;5004209;28;20041;-77
2022/09/08 07:00:24;;;;;;;12.50;4.97;;;;;;;14.66;100.00;156204.06;5005972;28;20060;-74
2022/09/08 07:03:16;;;;;;;5.63;4.80;;;;;;;14.63;100.00;156196.34;5007634;28;20137;-74
2022/09/08 07:05:57;;;;;;;6.95;4.57;;;;;;;14.71;100.00;156216.91;4985584;28;20041;-74
2022/09/08 07:08:50;;;;;;;10.88;4.95;;;;;;;14.68;100.00;156210.47;4999195;28;20518;-74
2022/09/08 07:11:38;;;;;;;10.60;4.70;;;;;;;14.67;100.00;156206.63;5005376;28;20057;-74
2022/09/08 07:14:22;;;;;;;10.55;5.00;;;;;;;14.68;100.00;156210.47;5004218;28;20088;-74
2022/09/08 07:16:58;;;;;;;7.45;4.60;;;;;;;14.74;100.00;156225.91;5016698;28;20061;-75
2022/09/08 07:19:49;;;;;;;11.10;4.82;;;;;;;14.75;100.00;156227.22;4990319;28;20073;-76
2022/09/08 07:22:39;;;;;;;7.05;4.72;;;;;;;14.78;100.00;156234.91;4985911;28;20046;-76
2022/09/08 07:25:17;;;;;;;9.88;4.50;;;;;;;14.86;100.00;156254.19;4986679;28;20092;-75
2022/09/08 07:27:46;;;;;;;6.10;4.20;;;;;;;14.84;100.00;156250.34;4970341;28;20050;-77
2022/09/08 07:30:15;;;;;;;7.50;4.18;;;;;;;14.85;100.00;156251.66;5005944;28;20042;-75
2022/09/08 07:32:42;;;;;;;6.30;4.20;;;;;;;14.85;100.00;156252.94;4992667;28;20446;-75
2022/09/08 07:35:16;;;;;;;10.30;4.38;;;;;;;14.90;100.00;156264.47;5002713;28;20041;-74
2022/09/08 07:37:50;;;;;;;11.73;4.05;;;;;;;14.86;100.00;156255.53;5002124;28;20034;-74
2022/09/08 07:40:25;;;;;;;5.82;3.80;;;;;;;14.85;100.00;156252.94;4970921;28;20213;-73
2022/09/08 07:42:56;;;;;;;7.13;4.20;;;;;;;14.84;100.00;156249.06;5006578;28;20408;-74
2022/09/08 07:45:33;;;;;;;9.52;3.97;;;;;;;14.89;100.00;156261.94;5009235;28;20046;-75
2022/09/08 07:48:13;;;;;;;10.85;3.83;;;;;;;14.93;100.00;156272.22;5010261;28;20754;-74
2022/09/08 07:50:54;;;;;;;8.38;3.90;;;;;;;14.94;100.00;156276.09;5009465;28;20053;-73
2022/09/08 07:54:02;;;;;;;9.73;3.80;;;;;;;14.89;100.00;156263.22;5005375;28;20038;-74
2022/09/08 07:56:37;;;;;;;11.02;3.83;;;;;;;14.92;100.00;156270.94;5023188;28;20064;-74
2022/09/08 07:59:05;;;;;;;16.30;4.18;;;;;;;14.97;100.00;156282.50;5002877;28;20167;-74
2022/09/08 08:02:15;;;;;;;15.00;3.83;;;;;;;14.96;100.00;156281.22;5007142;28;20049;-75
2022/09/08 08:04:59;;;;;;;9.38;3.65;;;;;;;14.94;100.00;156276.09;4995912;28;20511;-75
2022/09/08 08:07:35;;;;;;;10.35;4.00;;;;;;;14.91;100.00;156268.34;4989405;28;20054;-76
2022/09/08 08:10:11;;;;;;;9.82;3.80;;;;;;;14.91;100.00;156267.06;4990409;28;20048;-75
2022/09/08 08:12:45;;;;;;;10.63;3.80;;;;;;;14.86;100.00;156255.53;4986571;28;20030;-75
2022/09/08 08:15:22;;;;;;;9.57;3.63;;;;;;;14.92;100.00;156269.66;5001190;28;20042;-77
2022/09/08 08:17:53;;;;;;;13.65;3.75;;;;;;;14.88;100.00;156259.34;5018946;28;20459;-74
2022/09/08 08:20:43;;;;;;;6.63;3.10;;;;;;;14.85;100.00;156252.94;5001609;28;20052;-75
2022/09/08 08:23:34;;;;;;;9.07;3.53;;;;;;;14.92;100.00;156270.94;5024422;28;20057;-74
2022/09/08 08:26:18;;;;;;;9.73;3.75;;;;;;;14.87;100.00;156258.06;5007226;28;20034;-74
2022/09/08 08:28:45;;;;;;;11.13;3.30;;;;;;;14.92;100.00;156270.94;4993323;28;20126;-75
2022/09/08 08:31:29;;;;;;;7.60;3.22;;;;;;;14.90;100.00;156264.47;5007789;28;20111;-74
2022/09/08 08:34:03;;;;;;;11.30;3.60;;;;;;;14.92;100.00;156270.94;5025244;28;20034;-73
2022/09/08 08:36:33;;;;;;;6.95;3.30;;;;;;;15.02;100.00;156295.38;4987606;28;20041;-74
2022/09/08 08:39:13;;;;;;;8.10;3.40;;;;;;;15.03;100.00;156297.97;4997070;28;20037;-72
2022/09/08 08:41:59;;;;;;;7.35;3.20;;;;;;;15.11;100.00;156318.53;5001090;28;20037;-74
2022/09/08 08:44:43;;;;;;;6.55;3.40;;;;;;;15.19;100.00;156339.09;4989551;28;20588;-74
2022/09/08 08:47:33;;;;;;;6.43;3.40;;;;;;;15.32;100.00;156371.28;5007021;28;20036;-74
2022/09/08 08:50:17;;;;;;;7.35;3.03;;;;;;;15.28;100.00;156359.72;4988290;28;20049;-76
2022/09/08 08:53:08;;;;;;;7.50;3.55;;;;;;;15.34;100.00;156375.16;4980783;28;20093;-76
2022/09/08 08:55:59;;;;;;;7.25;2.95;;;;;;;15.42;100.00;156394.44;4997385;28;20172;-75
2022/09/08 08:58:45;;;;;;;8.15;3.33;;;;;;;15.49;99.97;156413.75;4985374;28;20414;-76
2022/09/08 09:01:46;;;;;;;8.93;3.30;;;;;;;15.64;98.88;156451.06;4997407;28;20415;-75
2022/09/08 09:04:26;;;;;;;6.10;2.92;;;;;;;15.74;98.54;156475.56;4986841;28;20136;-77
2022/09/08 09:07:12;;;;;;;11.63;3.35;;;;;;;15.89;96.34;156512.88;5015011;28;20124;-78
2022/09/08 09:10:02;;;;;;;8.07;3.05;;;;;;;16.00;96.28;156541.22;5001387;28;20033;-74
2022/09/08 09:12:44;;;;;;;10.48;3.50;;;;;;;16.09;94.54;156564.38;4991049;28;20388;-74
2022/09/08 09:15:29;;;;;;;9.23;3.38;;;;;;;16.19;93.26;156588.84;5008168;28;20033;-74
2022/09/08 09:18:22;;;;;;;7.55;2.95;;;;;;;16.24;90.26;156601.72;4998809;28;20407;-73
2022/09/08 09:20:59;;;;;;;6.65;3.38;;;;;;;16.27;90.02;156609.41;5011209;28;20034;-77
2022/09/08 09:23:28;;;;;;;15.30;3.95;;;;;;;16.30;90.17;156615.88;4965371;28;20081;-75
2022/09/08 09:26:14;;;;;;;8.63;3.25;;;;;;;16.35;91.50;156630.03;4968367;28;20048;-74
2022/09/08 09:28:56;;;;;;;5.70;3.00;;;;;;;16.43;89.42;156648.06;5010197;28;20042;-75
2022/09/08 09:31:33;;;;;;;12.25;3.15;;;;;;;16.40;89.35;156640.34;4987599;28;20450;-75
2022/09/08 09:34:28;;;;;;;9.45;3.03;;;;;;;16.43;90.09;156648.06;4967567;28;20061;-74
2022/09/08 09:37:18;;;;;;;12.73;3.60;;;;;;;16.52;87.42;156671.25;5000381;28;20120;-75
2022/09/08 09:40:15;;;;;;;8.95;3.10;;;;;;;16.51;87.49;156669.94;4997387;28;20563;-76
2022/09/08 09:42:57;;;;;;;9.27;3.38;;;;;;;16.62;87.38;156695.72;4969499;28;20045;-75
2022/09/08 09:45:53;;;;;;;9.02;3.30;;;;;;;16.68;86.52;156711.16;4987165;28;20100;-75
2022/09/08 09:48:43;;;;;;;11.55;3.40;;;;;;;16.68;86.59;156712.44;5002771;28;20140;-75
2022/09/08 09:51:36;;;;;;;9.65;3.42;;;;;;;16.83;87.34;156748.56;4998124;28;20116;-74
2022/09/08 09:54:43;;;;;;;9.00;3.58;;;;;;;16.78;84.99;156735.63;5017846;28;20146;-77
2022/09/08 09:57:21;;;;;;;7.30;3.30;;;;;;;16.78;84.95;156736.88;4974002;28;20462;-73
2022/09/08 10:00:09;;;;;;;10.32;3.30;;;;;;;16.71;87.43;156720.16;5003269;28;20030;-74
2022/09/08 10:03:05;;;;;;;11.32;3.50;;;;;;;16.71;84.98;156720.16;5003067;28;20032;-74
2022/09/08 10:05:49;;;;;;;;;;;;;;;16.73;85.92;156724.03;4987310;28;20120;-75
2022/09/08 10:08:48;;;;;;;13.23;3.70;;;;;;;16.69;85.42;156713.75;5004210;28;19924;-75
2022/09/08 10:11:55;;;;;;;5.07;2.97;;;;;;;16.59;86.32;156687.97;5006133;28;20038;-74
2022/09/08 10:14:42;;;;;;;8.77;3.45;;;;;;;16.51;85.44;156669.94;4971706;28;20066;-73
2022/09/08 10:17:17;;;;;;;8.65;3.30;;;;;;;16.37;85.81;156633.91;5003062;28;20050;-75
2022/09/08 10:19:58;;;;;;;8.68;3.67;;;;;;;16.30;86.77;156617.16;5000718;28;20032;-75
2022/09/08 10:22:42;;;;;;;11.00;4.22;;;;;;;16.18;88.71;156586.28;5020759;28;20081;-75
2022/09/08 10:25:36;;;;;;;9.60;4.07;;;;;;;16.18;89.35;156586.28;5003111;28;20040;-75
2022/09/08 10:28:36;;;;;;;9.70;4.22;;;;;;;16.01;90.72;156542.47;5017176;28;20766;-76
2022/09/08 10:31:35;;;;;;;10.82;4.53;;;;;;;15.72;99.30;156470.38;4972268;28;20411;-74
2022/09/08 10:34:25;;;;;;;12.80;4.03;;;;;;;15.41;100.00;156391.84;4994493;28;20124;-75
2022/09/08 10:37:00;;;;;;;9.40;4.25;;;;;;;15.22;100.00;156345.56;5008805;28;20044;-74
2022/09/08 10:39:42;;;;;;;11.45;4.43;;;;;;;15.10;100.00;156315.94;4992265;28;20562;-76
2022/09/08 10:42:25;;;;;;;13.70;5.05;;;;;;;14.98;100.00;156286.38;4984070;28;20042;-73
2022/09/08 10:45:00;;;;;;;7.15;4.38;;;;;;;14.87;100.00;156258.06;5013114;28;20044;-75
2022/09/08 10:47:48;;;;;;;8.48;4.63;;;;;;;14.82;100.00;156243.91;5002362;28;20549;-75
2022/09/08 10:50:19;;;;;;;8.73;4.72;;;;;;;14.71;100.00;156216.91;5022627;28;20272;-75
2022/09/08 10:53:19;;;;;;;9.65;4.40;;;;;;;14.60;100.00;156189.91;5024722;28;20056;-73
2022/09/08 10:56:00;;;;;;;9.50;4.90;;;;;;;14.55;100.00;156177.00;5015615;28;20100;-73
2022/09/08 10:58:51;;;;;;;11.05;5.13;;;;;;;14.52;100.00;156170.59;4988773;28;20067;-73
2022/09/08 11:01:51;;;;;;;11.02;5.00;;;;;;;14.52;100.00;156170.59;5010264;28;20045;-74
2022/09/08 11:04:23;;;;;;;10.52;5.30;;;;;;;14.51;100.00;156166.72;5004561;28;20057;-75
2022/09/08 11:06:57;;;;;;;9.27;4.90;;;;;;;14.40;100.00;156140.97;4977709;28;20049;-74
2022/09/08 11:09:38;;;;;;;10.48;5.50;;;;;;;14.25;100.00;156101.13;4989451;28;20050;-77
2022/09/08 11:12:36;;;;;;;9.07;5.78;;;;;;;14.08;100.00;156058.69;5005986;28;20034;-75
2022/09/08 11:15:26;;;;;;;11.70;6.80;;;;;;;13.92;100.00;156020.13;4999051;28;20526;-74
2022/09/08 11:18:05;;;;;;;11.68;6.78;;;;;;;13.82;100.00;155994.41;4989868;28;20128;-74
2022/09/08 11:20:47;;;;;;;15.90;6.60;;;;;;;13.76;100.00;155978.97;4988643;28;20117;-74
2022/09/08 11:23:50;;;;;;;11.82;6.68;;;;;;;13.77;100.00;155981.56;4984447;28;20184;-75
2022/09/08 11:26:44;;;;;;;14.43;7.05;;;;;;;13.74;100.00;155973.84;5003685;28;20065;-75
2022/09/08 11:29:13;;;;;;;10.35;7.00;;;;;;;13.78;100.00;155985.41;4992131;28;20069;-74
2022/09/08 11:31:53;;;;;;;11.50;7.40;;;;;;;13.77;100.00;155981.56;5000034;28;20033;-75
2022/09/08 11:34:30;;;;;;;15.07;7.07;;;;;;;13.82;100.00;155995.72;5006349;28;20038;-75
2022/09/08 11:37:32;;;;;;;15.35;7.75;;;;;;;13.80;100.00;155989.25;5018845;28;20038;-75
2022/09/08 11:40:29;;;;;;;12.77;7.80;;;;;;;13.88;100.00;156008.53;4967341;28;20515;-74
2022/09/08 11:43:35;;;;;;;12.60;7.60;;;;;;;13.83;100.00;155998.25;4993219;28;20044;-74
2022/09/08 11:46:12;;;;;;;14.93;8.60;;;;;;;13.87;100.00;156007.25;4965828;28;20046;-73
2022/09/08 11:48:49;;;;;;;20.80;9.18;;;;;;;13.90;100.00;156015.00;4974141;28;20049;-73
2022/09/08 11:51:35;;;;;;;13.35;8.30;;;;;;;13.99;100.00;156038.13;4983297;28;20046;-74